sensor_id;sensor_type;location;lat;lon;timestamp;P1;durP1;ratioP1;P2;durP2;ratioP2
42726;SDS011;28372;56.832;60.658;2022-12-11T00:00:52;1.38;;;0.80;;
42726;SDS011;28372;56.832;60.658;2022-12-11T00:03:20;1.80;;;0.90;;
42726;SDS011;28372;56.832;60.658;2022-12-11T00:05:47;2.00;;;1.10;;
42726;SDS011;28372;56.832;60.658;2022-12-11T00:08:15;1.65;;;0.80;;
42726;SDS011;28372;56.832;60.658;2022-12-11T00:10:46;2.42;;;0.82;;
42726;SDS011;28372;56.832;60.658;2022-12-11T00:13:15;1.88;;;0.93;;
42726;SDS011;28372;56.832;60.658;2022-12-11T00:15:43;2.63;;;0.90;;
42726;SDS011;28372;56.832;60.658;2022-12-11T00:18:11;1.92;;;0.90;;
42726;SDS011;28372;56.832;60.658;2022-12-11T00:20:40;2.63;;;1.52;;
42726;SDS011;28372;56.832;60.658;2022-12-11T00:23:08;2.13;;;1.20;;
42726;SDS011;28372;56.832;60.658;2022-12-11T00:25:40;1.70;;;0.90;;
42726;SDS011;28372;56.832;60.658;2022-12-11T00:28:13;1.90;;;0.80;;
42726;SDS011;28372;56.832;60.658;2022-12-11T00:30:41;1.08;;;0.70;;
42726;SDS011;28372;56.832;60.658;2022-12-11T00:33:10;1.67;;;0.75;;
42726;SDS011;28372;56.832;60.658;2022-12-11T00:35:39;2.53;;;0.80;;
42726;SDS011;28372;56.832;60.658;2022-12-11T00:38:09;1.70;;;0.80;;
42726;SDS011;28372;56.832;60.658;2022-12-11T00:40:42;1.58;;;0.80;;
42726;SDS011;28372;56.832;60.658;2022-12-11T00:43:10;1.20;;;0.70;;
42726;SDS011;28372;56.832;60.658;2022-12-11T00:45:39;1.83;;;0.90;;
42726;SDS011;28372;56.832;60.658;2022-12-11T00:50:40;2.20;;;0.70;;
42726;SDS011;28372;56.832;60.658;2022-12-11T00:53:08;1.83;;;0.90;;
42726;SDS011;28372;56.832;60.658;2022-12-11T00:55:39;1.30;;;0.80;;
42726;SDS011;28372;56.832;60.658;2022-12-11T00:58:08;1.83;;;0.90;;
42726;SDS011;28372;56.832;60.658;2022-12-11T01:00:37;1.30;;;0.90;;
42726;SDS011;28372;56.832;60.658;2022-12-11T01:03:05;2.00;;;0.88;;
42726;SDS011;28372;56.832;60.658;2022-12-11T01:05:33;2.20;;;1.10;;
42726;SDS011;28372;56.832;60.658;2022-12-11T01:08:03;2.67;;;0.80;;
42726;SDS011;28372;56.832;60.658;2022-12-11T01:10:31;2.35;;;0.98;;
42726;SDS011;28372;56.832;60.658;2022-12-11T01:13:00;1.85;;;1.05;;
42726;SDS011;28372;56.832;60.658;2022-12-11T01:15:31;2.40;;;1.05;;
42726;SDS011;28372;56.832;60.658;2022-12-11T01:18:07;1.77;;;1.00;;
42726;SDS011;28372;56.832;60.658;2022-12-11T01:20:36;1.95;;;0.90;;
42726;SDS011;28372;56.832;60.658;2022-12-11T01:23:05;2.33;;;1.10;;
42726;SDS011;28372;56.832;60.658;2022-12-11T01:25:34;1.45;;;0.90;;
42726;SDS011;28372;56.832;60.658;2022-12-11T01:28:04;1.90;;;0.90;;
42726;SDS011;28372;56.832;60.658;2022-12-11T01:30:32;1.50;;;0.73;;
42726;SDS011;28372;56.832;60.658;2022-12-11T01:33:00;1.73;;;0.77;;
42726;SDS011;28372;56.832;60.658;2022-12-11T01:35:27;1.77;;;0.80;;
42726;SDS011;28372;56.832;60.658;2022-12-11T01:37:55;1.15;;;0.80;;
42726;SDS011;28372;56.832;60.658;2022-12-11T01:40:22;2.53;;;0.93;;
42726;SDS011;28372;56.832;60.658;2022-12-11T01:42:50;2.20;;;1.10;;
42726;SDS011;28372;56.832;60.658;2022-12-11T01:47:58;2.90;;;0.95;;
42726;SDS011;28372;56.832;60.658;2022-12-11T01:50:32;1.92;;;0.93;;
42726;SDS011;28372;56.832;60.658;2022-12-11T01:53:05;4.40;;;0.93;;
42726;SDS011;28372;56.832;60.658;2022-12-11T01:55:34;1.98;;;0.90;;
42726;SDS011;28372;56.832;60.658;2022-12-11T01:58:05;2.92;;;0.80;;
42726;SDS011;28372;56.832;60.658;2022-12-11T02:00:34;1.73;;;0.80;;
42726;SDS011;28372;56.832;60.658;2022-12-11T02:03:02;2.22;;;0.93;;
42726;SDS011;28372;56.832;60.658;2022-12-11T02:05:30;2.20;;;0.90;;
42726;SDS011;28372;56.832;60.658;2022-12-11T02:07:58;1.55;;;0.93;;
42726;SDS011;28372;56.832;60.658;2022-12-11T02:10:35;1.90;;;0.98;;
42726;SDS011;28372;56.832;60.658;2022-12-11T02:13:11;2.25;;;0.93;;
42726;SDS011;28372;56.832;60.658;2022-12-11T02:16:27;1.58;;;0.90;;
42726;SDS011;28372;56.832;60.658;2022-12-11T02:19:02;2.13;;;1.10;;
42726;SDS011;28372;56.832;60.658;2022-12-11T02:21:45;2.90;;;1.00;;
42726;SDS011;28372;56.832;60.658;2022-12-11T02:30:23;2.17;;;1.00;;
42726;SDS011;28372;56.832;60.658;2022-12-11T02:32:55;2.28;;;1.00;;
42726;SDS011;28372;56.832;60.658;2022-12-11T02:35:27;1.95;;;1.10;;
42726;SDS011;28372;56.832;60.658;2022-12-11T02:38:07;1.55;;;0.80;;
42726;SDS011;28372;56.832;60.658;2022-12-11T02:40:50;2.17;;;1.00;;
42726;SDS011;28372;56.832;60.658;2022-12-11T02:43:21;2.08;;;1.00;;
42726;SDS011;28372;56.832;60.658;2022-12-11T02:45:51;1.55;;;0.90;;
42726;SDS011;28372;56.832;60.658;2022-12-11T02:48:20;2.00;;;0.90;;
42726;SDS011;28372;56.832;60.658;2022-12-11T02:50:51;3.00;;;1.00;;
42726;SDS011;28372;56.832;60.658;2022-12-11T02:53:22;1.92;;;1.08;;
42726;SDS011;28372;56.832;60.658;2022-12-11T02:55:59;2.38;;;1.10;;
42726;SDS011;28372;56.832;60.658;2022-12-11T02:58:32;2.08;;;0.93;;
42726;SDS011;28372;56.832;60.658;2022-12-11T03:01:03;1.67;;;0.80;;
42726;SDS011;28372;56.832;60.658;2022-12-11T03:03:31;2.95;;;0.90;;
42726;SDS011;28372;56.832;60.658;2022-12-11T03:05:59;1.98;;;0.90;;
42726;SDS011;28372;56.832;60.658;2022-12-11T03:08:26;2.80;;;1.27;;
42726;SDS011;28372;56.832;60.658;2022-12-11T03:10:54;2.95;;;1.10;;
42726;SDS011;28372;56.832;60.658;2022-12-11T03:13:22;2.80;;;1.10;;
42726;SDS011;28372;56.832;60.658;2022-12-11T03:21:15;2.40;;;0.97;;
42726;SDS011;28372;56.832;60.658;2022-12-11T03:23:59;2.53;;;1.10;;
42726;SDS011;28372;56.832;60.658;2022-12-11T03:26:34;3.25;;;1.20;;
42726;SDS011;28372;56.832;60.658;2022-12-11T03:31:42;2.88;;;1.17;;
42726;SDS011;28372;56.832;60.658;2022-12-11T03:34:19;3.03;;;1.20;;
42726;SDS011;28372;56.832;60.658;2022-12-11T03:36:54;2.92;;;1.30;;
42726;SDS011;28372;56.832;60.658;2022-12-11T03:39:25;2.72;;;1.20;;
42726;SDS011;28372;56.832;60.658;2022-12-11T03:41:57;2.88;;;1.20;;
42726;SDS011;28372;56.832;60.658;2022-12-11T03:44:27;2.88;;;1.27;;
42726;SDS011;28372;56.832;60.658;2022-12-11T03:46:58;2.83;;;1.25;;
42726;SDS011;28372;56.832;60.658;2022-12-11T03:49:28;2.63;;;1.10;;
42726;SDS011;28372;56.832;60.658;2022-12-11T03:52:04;3.15;;;1.40;;
42726;SDS011;28372;56.832;60.658;2022-12-11T03:54:35;4.10;;;1.77;;
42726;SDS011;28372;56.832;60.658;2022-12-11T03:57:03;4.00;;;1.52;;
42726;SDS011;28372;56.832;60.658;2022-12-11T03:59:33;4.07;;;1.80;;
42726;SDS011;28372;56.832;60.658;2022-12-11T04:02:01;4.18;;;1.80;;
42726;SDS011;28372;56.832;60.658;2022-12-11T04:04:37;5.47;;;1.83;;
42726;SDS011;28372;56.832;60.658;2022-12-11T04:07:05;4.57;;;1.80;;
42726;SDS011;28372;56.832;60.658;2022-12-11T04:09:33;4.95;;;2.03;;
42726;SDS011;28372;56.832;60.658;2022-12-11T04:12:01;3.65;;;1.60;;
42726;SDS011;28372;56.832;60.658;2022-12-11T04:14:28;5.22;;;1.70;;
42726;SDS011;28372;56.832;60.658;2022-12-11T04:17:14;4.50;;;1.70;;
42726;SDS011;28372;56.832;60.658;2022-12-11T04:20:03;6.82;;;1.80;;
42726;SDS011;28372;56.832;60.658;2022-12-11T04:22:50;4.63;;;1.92;;
42726;SDS011;28372;56.832;60.658;2022-12-11T04:25:36;3.67;;;1.80;;
42726;SDS011;28372;56.832;60.658;2022-12-11T04:28:03;4.40;;;2.00;;
42726;SDS011;28372;56.832;60.658;2022-12-11T04:30:31;3.85;;;1.70;;
42726;SDS011;28372;56.832;60.658;2022-12-11T04:33:00;5.65;;;1.90;;
42726;SDS011;28372;56.832;60.658;2022-12-11T04:35:28;3.97;;;1.90;;
42726;SDS011;28372;56.832;60.658;2022-12-11T04:37:55;4.93;;;2.33;;
42726;SDS011;28372;56.832;60.658;2022-12-11T04:40:23;3.95;;;1.75;;
42726;SDS011;28372;56.832;60.658;2022-12-11T04:42:51;7.72;;;2.30;;
42726;SDS011;28372;56.832;60.658;2022-12-11T04:45:19;4.75;;;2.05;;
42726;SDS011;28372;56.832;60.658;2022-12-11T04:47:46;3.95;;;1.88;;
42726;SDS011;28372;56.832;60.658;2022-12-11T04:50:14;4.65;;;1.95;;
42726;SDS011;28372;56.832;60.658;2022-12-11T04:52:42;4.07;;;1.80;;
42726;SDS011;28372;56.832;60.658;2022-12-11T04:55:10;4.30;;;2.00;;
42726;SDS011;28372;56.832;60.658;2022-12-11T04:57:38;4.47;;;1.67;;
42726;SDS011;28372;56.832;60.658;2022-12-11T05:00:07;4.03;;;1.92;;
42726;SDS011;28372;56.832;60.658;2022-12-11T05:02:37;4.22;;;1.85;;
42726;SDS011;28372;56.832;60.658;2022-12-11T05:05:07;3.33;;;1.08;;
42726;SDS011;28372;56.832;60.658;2022-12-11T05:07:37;4.97;;;2.20;;
42726;SDS011;28372;56.832;60.658;2022-12-11T05:10:06;3.88;;;1.85;;
42726;SDS011;28372;56.832;60.658;2022-12-11T05:12:34;2.58;;;1.35;;
42726;SDS011;28372;56.832;60.658;2022-12-11T05:15:02;3.85;;;1.33;;
42726;SDS011;28372;56.832;60.658;2022-12-11T05:17:30;7.80;;;2.00;;
42726;SDS011;28372;56.832;60.658;2022-12-11T05:19:57;4.80;;;1.40;;
42726;SDS011;28372;56.832;60.658;2022-12-11T05:22:25;2.25;;;1.15;;
42726;SDS011;28372;56.832;60.658;2022-12-11T05:24:52;5.60;;;1.67;;
42726;SDS011;28372;56.832;60.658;2022-12-11T05:27:20;4.35;;;1.60;;
42726;SDS011;28372;56.832;60.658;2022-12-11T05:29:47;1.83;;;1.13;;
42726;SDS011;28372;56.832;60.658;2022-12-11T05:32:19;2.45;;;1.30;;
42726;SDS011;28372;56.832;60.658;2022-12-11T05:34:46;5.05;;;2.28;;
42726;SDS011;28372;56.832;60.658;2022-12-11T05:37:14;3.17;;;1.58;;
42726;SDS011;28372;56.832;60.658;2022-12-11T05:39:41;5.82;;;1.70;;
42726;SDS011;28372;56.832;60.658;2022-12-11T05:42:09;2.58;;;1.33;;
42726;SDS011;28372;56.832;60.658;2022-12-11T05:44:36;4.95;;;1.80;;
42726;SDS011;28372;56.832;60.658;2022-12-11T05:47:04;5.25;;;1.52;;
42726;SDS011;28372;56.832;60.658;2022-12-11T05:49:32;2.97;;;1.60;;
42726;SDS011;28372;56.832;60.658;2022-12-11T05:51:59;6.85;;;1.70;;
42726;SDS011;28372;56.832;60.658;2022-12-11T05:54:27;6.38;;;2.10;;
42726;SDS011;28372;56.832;60.658;2022-12-11T05:56:54;4.70;;;2.10;;
42726;SDS011;28372;56.832;60.658;2022-12-11T05:59:22;3.45;;;1.33;;
42726;SDS011;28372;56.832;60.658;2022-12-11T06:01:49;5.05;;;1.80;;
42726;SDS011;28372;56.832;60.658;2022-12-11T06:04:17;4.35;;;1.90;;
42726;SDS011;28372;56.832;60.658;2022-12-11T06:06:44;6.35;;;1.75;;
42726;SDS011;28372;56.832;60.658;2022-12-11T06:09:13;5.65;;;1.73;;
42726;SDS011;28372;56.832;60.658;2022-12-11T06:11:41;5.28;;;2.15;;
42726;SDS011;28372;56.832;60.658;2022-12-11T06:14:09;6.20;;;2.17;;
42726;SDS011;28372;56.832;60.658;2022-12-11T06:16:37;7.30;;;2.35;;
42726;SDS011;28372;56.832;60.658;2022-12-11T06:19:11;6.50;;;2.50;;
42726;SDS011;28372;56.832;60.658;2022-12-11T06:21:46;7.75;;;3.10;;
42726;SDS011;28372;56.832;60.658;2022-12-11T06:24:14;5.18;;;2.28;;
42726;SDS011;28372;56.832;60.658;2022-12-11T06:26:42;5.63;;;1.90;;
42726;SDS011;28372;56.832;60.658;2022-12-11T06:29:10;4.13;;;1.80;;
42726;SDS011;28372;56.832;60.658;2022-12-11T06:31:39;5.15;;;2.10;;
42726;SDS011;28372;56.832;60.658;2022-12-11T06:34:07;7.80;;;2.50;;
42726;SDS011;28372;56.832;60.658;2022-12-11T06:36:39;6.85;;;2.40;;
42726;SDS011;28372;56.832;60.658;2022-12-11T06:39:07;6.25;;;2.28;;
42726;SDS011;28372;56.832;60.658;2022-12-11T06:41:36;7.10;;;2.42;;
42726;SDS011;28372;56.832;60.658;2022-12-11T06:44:04;5.07;;;2.42;;
42726;SDS011;28372;56.832;60.658;2022-12-11T06:46:33;3.50;;;1.48;;
42726;SDS011;28372;56.832;60.658;2022-12-11T06:49:01;6.07;;;2.35;;
42726;SDS011;28372;56.832;60.658;2022-12-11T06:51:30;5.43;;;3.00;;
42726;SDS011;28372;56.832;60.658;2022-12-11T06:53:59;5.38;;;2.10;;
42726;SDS011;28372;56.832;60.658;2022-12-11T06:56:28;6.13;;;1.88;;
42726;SDS011;28372;56.832;60.658;2022-12-11T06:58:57;4.00;;;1.65;;
42726;SDS011;28372;56.832;60.658;2022-12-11T07:01:31;12.50;;;2.88;;
42726;SDS011;28372;56.832;60.658;2022-12-11T07:04:00;6.18;;;1.98;;
42726;SDS011;28372;56.832;60.658;2022-12-11T07:06:27;6.00;;;1.80;;
42726;SDS011;28372;56.832;60.658;2022-12-11T07:08:56;5.30;;;1.92;;
42726;SDS011;28372;56.832;60.658;2022-12-11T07:11:23;4.95;;;1.60;;
42726;SDS011;28372;56.832;60.658;2022-12-11T07:13:51;5.20;;;1.75;;
42726;SDS011;28372;56.832;60.658;2022-12-11T07:16:18;5.45;;;1.80;;
42726;SDS011;28372;56.832;60.658;2022-12-11T07:18:47;6.75;;;2.15;;
42726;SDS011;28372;56.832;60.658;2022-12-11T07:21:16;6.28;;;2.40;;
42726;SDS011;28372;56.832;60.658;2022-12-11T07:23:47;6.53;;;2.70;;
42726;SDS011;28372;56.832;60.658;2022-12-11T07:26:17;6.93;;;3.22;;
42726;SDS011;28372;56.832;60.658;2022-12-11T07:28:47;7.00;;;2.58;;
42726;SDS011;28372;56.832;60.658;2022-12-11T07:31:17;4.03;;;1.95;;
42726;SDS011;28372;56.832;60.658;2022-12-11T07:34:10;4.95;;;2.50;;
42726;SDS011;28372;56.832;60.658;2022-12-11T07:36:38;4.88;;;2.15;;
42726;SDS011;28372;56.832;60.658;2022-12-11T07:39:06;5.05;;;1.90;;
42726;SDS011;28372;56.832;60.658;2022-12-11T07:41:35;6.60;;;2.20;;
42726;SDS011;28372;56.832;60.658;2022-12-11T07:44:09;6.63;;;2.03;;
42726;SDS011;28372;56.832;60.658;2022-12-11T07:46:37;4.28;;;1.63;;
42726;SDS011;28372;56.832;60.658;2022-12-11T07:49:07;2.80;;;1.30;;
42726;SDS011;28372;56.832;60.658;2022-12-11T07:51:36;4.00;;;1.65;;
42726;SDS011;28372;56.832;60.658;2022-12-11T07:54:05;4.95;;;1.75;;
42726;SDS011;28372;56.832;60.658;2022-12-11T07:56:36;4.28;;;1.88;;
42726;SDS011;28372;56.832;60.658;2022-12-11T07:59:10;3.05;;;1.60;;
42726;SDS011;28372;56.832;60.658;2022-12-11T08:01:40;3.88;;;1.77;;
42726;SDS011;28372;56.832;60.658;2022-12-11T08:04:09;6.22;;;2.40;;
42726;SDS011;28372;56.832;60.658;2022-12-11T08:06:38;4.22;;;1.88;;
42726;SDS011;28372;56.832;60.658;2022-12-11T08:09:08;5.60;;;2.40;;
42726;SDS011;28372;56.832;60.658;2022-12-11T08:11:49;5.78;;;2.15;;
42726;SDS011;28372;56.832;60.658;2022-12-11T08:14:18;5.45;;;1.92;;
42726;SDS011;28372;56.832;60.658;2022-12-11T08:16:46;4.97;;;2.00;;
42726;SDS011;28372;56.832;60.658;2022-12-11T08:19:14;5.40;;;2.10;;
42726;SDS011;28372;56.832;60.658;2022-12-11T08:21:42;5.97;;;2.65;;
42726;SDS011;28372;56.832;60.658;2022-12-11T08:24:10;7.72;;;2.70;;
42726;SDS011;28372;56.832;60.658;2022-12-11T08:26:39;6.70;;;2.40;;
42726;SDS011;28372;56.832;60.658;2022-12-11T08:29:06;5.43;;;2.42;;
42726;SDS011;28372;56.832;60.658;2022-12-11T08:31:34;5.63;;;2.30;;
42726;SDS011;28372;56.832;60.658;2022-12-11T08:34:01;5.50;;;2.03;;
42726;SDS011;28372;56.832;60.658;2022-12-11T08:36:29;5.85;;;2.35;;
42726;SDS011;28372;56.832;60.658;2022-12-11T08:38:57;6.18;;;2.50;;
42726;SDS011;28372;56.832;60.658;2022-12-11T08:41:25;4.72;;;2.05;;
42726;SDS011;28372;56.832;60.658;2022-12-11T08:43:55;4.85;;;2.08;;
42726;SDS011;28372;56.832;60.658;2022-12-11T08:46:25;5.30;;;2.22;;
42726;SDS011;28372;56.832;60.658;2022-12-11T08:48:55;4.82;;;1.90;;
42726;SDS011;28372;56.832;60.658;2022-12-11T08:51:23;5.30;;;2.05;;
42726;SDS011;28372;56.832;60.658;2022-12-11T08:53:56;6.85;;;2.50;;
42726;SDS011;28372;56.832;60.658;2022-12-11T08:56:25;6.05;;;2.50;;
42726;SDS011;28372;56.832;60.658;2022-12-11T08:58:54;9.27;;;2.60;;
42726;SDS011;28372;56.832;60.658;2022-12-11T09:01:24;7.18;;;3.10;;
42726;SDS011;28372;56.832;60.658;2022-12-11T09:03:53;11.02;;;4.43;;
42726;SDS011;28372;56.832;60.658;2022-12-11T09:06:23;9.52;;;4.15;;
42726;SDS011;28372;56.832;60.658;2022-12-11T09:08:52;10.95;;;4.47;;
42726;SDS011;28372;56.832;60.658;2022-12-11T09:11:26;11.02;;;4.72;;
42726;SDS011;28372;56.832;60.658;2022-12-11T09:13:56;11.07;;;4.00;;
42726;SDS011;28372;56.832;60.658;2022-12-11T09:16:33;9.65;;;3.83;;
42726;SDS011;28372;56.832;60.658;2022-12-11T09:19:07;12.95;;;4.82;;
42726;SDS011;28372;56.832;60.658;2022-12-11T09:21:39;11.68;;;4.78;;
42726;SDS011;28372;56.832;60.658;2022-12-11T09:24:08;8.02;;;3.95;;
42726;SDS011;28372;56.832;60.658;2022-12-11T09:26:37;9.38;;;4.20;;
42726;SDS011;28372;56.832;60.658;2022-12-11T09:29:06;10.95;;;4.55;;
42726;SDS011;28372;56.832;60.658;2022-12-11T09:31:34;12.30;;;4.22;;
42726;SDS011;28372;56.832;60.658;2022-12-11T09:34:04;9.35;;;4.28;;
42726;SDS011;28372;56.832;60.658;2022-12-11T09:36:33;14.70;;;4.82;;
42726;SDS011;28372;56.832;60.658;2022-12-11T09:39:02;13.18;;;5.38;;
42726;SDS011;28372;56.832;60.658;2022-12-11T09:41:34;11.63;;;4.82;;
42726;SDS011;28372;56.832;60.658;2022-12-11T09:44:39;9.15;;;3.42;;
42726;SDS011;28372;56.832;60.658;2022-12-11T09:47:15;8.93;;;3.50;;
42726;SDS011;28372;56.832;60.658;2022-12-11T09:50:04;13.88;;;4.10;;
42726;SDS011;28372;56.832;60.658;2022-12-11T09:55:15;11.90;;;5.05;;
42726;SDS011;28372;56.832;60.658;2022-12-11T10:06:14;12.60;;;5.05;;
42726;SDS011;28372;56.832;60.658;2022-12-11T10:19:17;9.95;;;3.92;;
42726;SDS011;28372;56.832;60.658;2022-12-11T10:21:48;8.48;;;3.60;;
42726;SDS011;28372;56.832;60.658;2022-12-11T10:24:27;9.98;;;3.80;;
42726;SDS011;28372;56.832;60.658;2022-12-11T10:27:27;7.40;;;3.25;;
42726;SDS011;28372;56.832;60.658;2022-12-11T10:35:42;12.43;;;4.13;;
42726;SDS011;28372;56.832;60.658;2022-12-11T10:40:53;11.32;;;4.03;;
42726;SDS011;28372;56.832;60.658;2022-12-11T10:46:03;10.27;;;4.68;;
42726;SDS011;28372;56.832;60.658;2022-12-11T10:48:32;8.73;;;3.47;;
42726;SDS011;28372;56.832;60.658;2022-12-11T10:51:04;12.70;;;4.40;;
42726;SDS011;28372;56.832;60.658;2022-12-11T10:53:35;13.50;;;4.03;;
42726;SDS011;28372;56.832;60.658;2022-12-11T10:56:03;10.57;;;4.10;;
42726;SDS011;28372;56.832;60.658;2022-12-11T10:58:31;12.65;;;4.00;;
42726;SDS011;28372;56.832;60.658;2022-12-11T11:01:13;9.68;;;3.45;;
42726;SDS011;28372;56.832;60.658;2022-12-11T11:03:50;11.73;;;4.20;;
42726;SDS011;28372;56.832;60.658;2022-12-11T11:06:34;12.68;;;5.13;;
42726;SDS011;28372;56.832;60.658;2022-12-11T11:09:02;10.52;;;5.00;;
42726;SDS011;28372;56.832;60.658;2022-12-11T11:11:36;12.43;;;4.25;;
42726;SDS011;28372;56.832;60.658;2022-12-11T11:16:39;10.73;;;4.32;;
42726;SDS011;28372;56.832;60.658;2022-12-11T11:19:14;10.52;;;4.72;;
42726;SDS011;28372;56.832;60.658;2022-12-11T11:21:58;9.40;;;4.30;;
42726;SDS011;28372;56.832;60.658;2022-12-11T11:24:42;11.13;;;4.13;;
42726;SDS011;28372;56.832;60.658;2022-12-11T11:29:52;7.35;;;4.00;;
42726;SDS011;28372;56.832;60.658;2022-12-11T11:32:26;10.65;;;3.65;;
42726;SDS011;28372;56.832;60.658;2022-12-11T11:40:27;9.50;;;3.25;;
42726;SDS011;28372;56.832;60.658;2022-12-11T11:48:32;8.25;;;3.10;;
42726;SDS011;28372;56.832;60.658;2022-12-11T11:51:11;10.18;;;3.25;;
42726;SDS011;28372;56.832;60.658;2022-12-11T11:53:49;7.43;;;3.58;;
42726;SDS011;28372;56.832;60.658;2022-12-11T11:56:20;10.70;;;4.43;;
42726;SDS011;28372;56.832;60.658;2022-12-11T12:01:39;10.63;;;4.15;;
42726;SDS011;28372;56.832;60.658;2022-12-11T12:04:08;12.85;;;4.25;;
42726;SDS011;28372;56.832;60.658;2022-12-11T12:09:58;11.07;;;4.50;;
42726;SDS011;28372;56.832;60.658;2022-12-11T12:12:52;14.23;;;4.50;;
42726;SDS011;28372;56.832;60.658;2022-12-11T12:15:38;12.70;;;4.63;;
42726;SDS011;28372;56.832;60.658;2022-12-11T12:26:55;11.07;;;4.60;;
42726;SDS011;28372;56.832;60.658;2022-12-11T12:40:55;9.63;;;4.35;;
42726;SDS011;28372;56.832;60.658;2022-12-11T12:52:06;9.88;;;3.80;;
42726;SDS011;28372;56.832;60.658;2022-12-11T12:54:50;9.35;;;4.00;;
42726;SDS011;28372;56.832;60.658;2022-12-11T12:57:44;9.27;;;3.75;;
42726;SDS011;28372;56.832;60.658;2022-12-11T13:02:54;10.43;;;4.13;;
42726;SDS011;28372;56.832;60.658;2022-12-11T13:05:26;12.07;;;4.32;;
42726;SDS011;28372;56.832;60.658;2022-12-11T13:08:03;10.52;;;4.05;;
42726;SDS011;28372;56.832;60.658;2022-12-11T13:10:39;7.22;;;3.50;;
42726;SDS011;28372;56.832;60.658;2022-12-11T13:13:29;9.38;;;4.40;;
42726;SDS011;28372;56.832;60.658;2022-12-11T13:18:43;10.80;;;3.70;;
42726;SDS011;28372;56.832;60.658;2022-12-11T13:23:52;10.32;;;3.33;;
42726;SDS011;28372;56.832;60.658;2022-12-11T13:26:27;10.75;;;4.03;;
42726;SDS011;28372;56.832;60.658;2022-12-11T13:28:56;8.52;;;3.15;;
42726;SDS011;28372;56.832;60.658;2022-12-11T13:31:27;8.68;;;4.15;;
42726;SDS011;28372;56.832;60.658;2022-12-11T13:34:07;6.35;;;2.90;;
42726;SDS011;28372;56.832;60.658;2022-12-11T13:36:45;5.80;;;2.47;;
42726;SDS011;28372;56.832;60.658;2022-12-11T13:39:16;6.43;;;2.38;;
42726;SDS011;28372;56.832;60.658;2022-12-11T13:41:47;7.85;;;3.15;;
42726;SDS011;28372;56.832;60.658;2022-12-11T13:44:38;6.80;;;2.97;;
42726;SDS011;28372;56.832;60.658;2022-12-11T13:47:13;9.00;;;3.63;;
42726;SDS011;28372;56.832;60.658;2022-12-11T13:49:45;12.80;;;4.68;;
42726;SDS011;28372;56.832;60.658;2022-12-11T13:52:17;9.65;;;4.38;;
42726;SDS011;28372;56.832;60.658;2022-12-11T13:54:48;10.80;;;3.55;;
42726;SDS011;28372;56.832;60.658;2022-12-11T13:57:17;8.45;;;3.10;;
42726;SDS011;28372;56.832;60.658;2022-12-11T13:59:56;4.55;;;2.38;;
42726;SDS011;28372;56.832;60.658;2022-12-11T14:02:29;4.78;;;2.47;;
42726;SDS011;28372;56.832;60.658;2022-12-11T14:05:08;12.25;;;4.65;;
42726;SDS011;28372;56.832;60.658;2022-12-11T14:07:46;9.27;;;3.75;;
42726;SDS011;28372;56.832;60.658;2022-12-11T14:10:21;6.15;;;2.78;;
42726;SDS011;28372;56.832;60.658;2022-12-11T14:12:56;11.85;;;4.38;;
42726;SDS011;28372;56.832;60.658;2022-12-11T14:15:28;5.65;;;2.80;;
42726;SDS011;28372;56.832;60.658;2022-12-11T14:17:58;9.50;;;3.45;;
42726;SDS011;28372;56.832;60.658;2022-12-11T14:20:28;5.40;;;2.13;;
42726;SDS011;28372;56.832;60.658;2022-12-11T14:23:18;2.47;;;1.48;;
42726;SDS011;28372;56.832;60.658;2022-12-11T14:25:52;9.02;;;4.05;;
42726;SDS011;28372;56.832;60.658;2022-12-11T14:28:27;7.70;;;3.20;;
42726;SDS011;28372;56.832;60.658;2022-12-11T14:30:57;11.32;;;4.20;;
42726;SDS011;28372;56.832;60.658;2022-12-11T14:33:31;11.93;;;3.47;;
42726;SDS011;28372;56.832;60.658;2022-12-11T14:36:03;7.70;;;2.63;;
42726;SDS011;28372;56.832;60.658;2022-12-11T14:38:51;6.75;;;2.65;;
42726;SDS011;28372;56.832;60.658;2022-12-11T14:41:41;7.07;;;2.53;;
42726;SDS011;28372;56.832;60.658;2022-12-11T14:44:16;5.95;;;2.47;;
42726;SDS011;28372;56.832;60.658;2022-12-11T14:47:11;5.33;;;2.43;;
42726;SDS011;28372;56.832;60.658;2022-12-11T14:49:50;8.68;;;3.10;;
42726;SDS011;28372;56.832;60.658;2022-12-11T14:52:32;6.15;;;2.05;;
42726;SDS011;28372;56.832;60.658;2022-12-11T14:55:14;8.98;;;3.45;;
42726;SDS011;28372;56.832;60.658;2022-12-11T15:03:38;2.05;;;1.25;;
42726;SDS011;28372;56.832;60.658;2022-12-11T15:11:50;4.22;;;2.00;;
42726;SDS011;28372;56.832;60.658;2022-12-11T15:14:21;3.33;;;1.42;;
42726;SDS011;28372;56.832;60.658;2022-12-11T15:16:51;5.50;;;2.63;;
42726;SDS011;28372;56.832;60.658;2022-12-11T15:19:29;4.15;;;2.08;;
42726;SDS011;28372;56.832;60.658;2022-12-11T15:22:05;4.57;;;2.38;;
42726;SDS011;28372;56.832;60.658;2022-12-11T15:24:36;5.72;;;2.97;;
42726;SDS011;28372;56.832;60.658;2022-12-11T15:27:25;3.50;;;1.63;;
42726;SDS011;28372;56.832;60.658;2022-12-11T15:29:56;6.10;;;2.33;;
42726;SDS011;28372;56.832;60.658;2022-12-11T15:32:25;4.05;;;2.20;;
42726;SDS011;28372;56.832;60.658;2022-12-11T15:34:56;5.97;;;2.45;;
42726;SDS011;28372;56.832;60.658;2022-12-11T15:37:26;5.53;;;2.58;;
42726;SDS011;28372;56.832;60.658;2022-12-11T15:40:00;4.20;;;2.05;;
42726;SDS011;28372;56.832;60.658;2022-12-11T15:45:06;4.22;;;1.98;;
42726;SDS011;28372;56.832;60.658;2022-12-11T15:47:41;4.80;;;2.10;;
42726;SDS011;28372;56.832;60.658;2022-12-11T15:52:42;4.43;;;1.67;;
42726;SDS011;28372;56.832;60.658;2022-12-11T15:55:12;4.38;;;1.70;;
42726;SDS011;28372;56.832;60.658;2022-12-11T15:57:43;5.82;;;2.55;;
42726;SDS011;28372;56.832;60.658;2022-12-11T16:00:13;13.73;;;5.43;;
42726;SDS011;28372;56.832;60.658;2022-12-11T16:02:45;13.35;;;5.25;;
42726;SDS011;28372;56.832;60.658;2022-12-11T16:05:13;16.85;;;7.40;;
42726;SDS011;28372;56.832;60.658;2022-12-11T16:07:41;6.38;;;2.50;;
42726;SDS011;28372;56.832;60.658;2022-12-11T16:10:13;5.65;;;2.95;;
42726;SDS011;28372;56.832;60.658;2022-12-11T16:12:43;6.55;;;2.47;;
42726;SDS011;28372;56.832;60.658;2022-12-11T16:15:12;9.20;;;4.00;;
42726;SDS011;28372;56.832;60.658;2022-12-11T16:17:48;7.35;;;2.70;;
42726;SDS011;28372;56.832;60.658;2022-12-11T16:20:16;5.70;;;3.00;;
42726;SDS011;28372;56.832;60.658;2022-12-11T16:22:44;5.03;;;2.30;;
42726;SDS011;28372;56.832;60.658;2022-12-11T16:25:11;6.40;;;2.88;;
42726;SDS011;28372;56.832;60.658;2022-12-11T16:27:40;6.13;;;2.72;;
42726;SDS011;28372;56.832;60.658;2022-12-11T16:30:08;7.63;;;3.00;;
42726;SDS011;28372;56.832;60.658;2022-12-11T16:32:37;8.23;;;2.97;;
42726;SDS011;28372;56.832;60.658;2022-12-11T16:35:05;6.25;;;2.75;;
42726;SDS011;28372;56.832;60.658;2022-12-11T16:37:33;5.13;;;2.13;;
42726;SDS011;28372;56.832;60.658;2022-12-11T16:40:01;4.35;;;2.22;;
42726;SDS011;28372;56.832;60.658;2022-12-11T16:42:29;5.05;;;2.50;;
42726;SDS011;28372;56.832;60.658;2022-12-11T16:45:09;6.53;;;3.33;;
42726;SDS011;28372;56.832;60.658;2022-12-11T16:47:42;6.18;;;3.03;;
42726;SDS011;28372;56.832;60.658;2022-12-11T16:50:11;5.25;;;2.45;;
42726;SDS011;28372;56.832;60.658;2022-12-11T16:52:41;4.97;;;2.40;;
42726;SDS011;28372;56.832;60.658;2022-12-11T16:55:11;5.68;;;2.30;;
42726;SDS011;28372;56.832;60.658;2022-12-11T16:57:40;8.10;;;2.65;;
42726;SDS011;28372;56.832;60.658;2022-12-11T17:00:09;4.65;;;2.17;;
42726;SDS011;28372;56.832;60.658;2022-12-11T17:02:40;4.25;;;2.20;;
42726;SDS011;28372;56.832;60.658;2022-12-11T17:05:08;5.20;;;2.60;;
42726;SDS011;28372;56.832;60.658;2022-12-11T17:07:36;5.75;;;2.97;;